Time;durP1;ratioP1;P1;durP2;ratioP2;P2;SDS_P1;SDS_P2;PMS_P1;PMS_P2;Temp;Humidity;BMP_temperature;BMP_pressure;BME280_temperature;BME280_humidity;BME280_pressure;Samples;Min_cycle;Max_cycle;Signal;HPM_P1;HPM_P2
2023/02/16 00:01:24;;;;;;;59.80;30.27;;;9.80;96.70;;;;;;5021364;28;20150;-74
2023/02/16 00:03:53;;;;;;;53.35;28.42;;;9.70;96.70;;;;;;5053774;28;20136;-74
2023/02/16 00:06:20;;;;;;;55.05;28.00;;;9.70;96.70;;;;;;5037142;28;20036;-74
2023/02/16 00:08:50;;;;;;;57.55;28.40;;;9.60;96.70;;;;;;5060374;28;20260;-74
2023/02/16 00:14:11;;;;;;;49.20;25.98;;;9.60;96.70;;;;;;5048298;28;20119;-73
2023/02/16 00:16:39;;;;;;;48.88;26.63;;;9.60;96.70;;;;;;5056322;28;20055;-74
2023/02/16 00:19:18;;;;;;;45.75;23.95;;;9.60;96.70;;;;;;5034572;28;20050;-73
2023/02/16 00:21:45;;;;;;;47.13;24.92;;;9.60;96.70;;;;;;5057286;28;20032;-73
2023/02/16 00:24:13;;;;;;;49.92;26.92;;;9.60;96.70;;;;;;5024481;28;20073;-73
2023/02/16 00:26:41;;;;;;;49.53;25.05;;;9.70;96.70;;;;;;5036559;28;20132;-73
2023/02/16 00:29:17;;;;;;;49.22;26.10;;;9.60;96.70;;;;;;5061624;28;20127;-74
2023/02/16 00:31:44;;;;;;;51.30;26.85;;;9.60;96.70;;;;;;5034665;28;20843;-74
2023/02/16 00:34:29;;;;;;;50.08;25.98;;;9.70;96.70;;;;;;5034308;28;20055;-74
2023/02/16 00:37:00;;;;;;;51.78;25.55;;;9.70;96.70;;;;;;5034445;28;20142;-74
2023/02/16 00:39:28;;;;;;;54.13;26.85;;;9.70;96.70;;;;;;5062379;28;20044;-74
2023/02/16 00:41:58;;;;;;;47.40;24.50;;;9.70;96.70;;;;;;5043410;28;20045;-73
2023/02/16 00:44:32;;;;;;;51.72;25.95;;;9.70;96.70;;;;;;5051952;28;20095;-73
2023/02/16 00:47:02;;;;;;;46.10;25.05;;;9.70;96.70;;;;;;5045202;28;20041;-74
2023/02/16 00:49:30;;;;;;;49.33;25.20;;;9.70;96.70;;;;;;5027213;28;20678;-73
2023/02/16 00:51:58;;;;;;;51.55;25.67;;;9.70;96.70;;;;;;5052421;28;20040;-73
2023/02/16 00:54:25;;;;;;;51.63;26.23;;;9.70;96.70;;;;;;5049818;28;20040;-74
2023/02/16 00:56:53;;;;;;;47.20;25.05;;;9.70;96.70;;;;;;5047202;28;20839;-73
2023/02/16 00:59:21;;;;;;;49.42;24.10;;;9.70;96.70;;;;;;5033472;28;20644;-74
2023/02/16 01:01:50;;;;;;;51.75;24.67;;;9.70;96.70;;;;;;5056931;28;20045;-74
2023/02/16 01:04:22;;;;;;;53.28;25.48;;;9.70;96.70;;;;;;5045383;28;20033;-73
2023/02/16 01:12:23;;;;;;;57.30;26.58;;;9.70;96.70;;;;;;5034095;28;20540;-74
2023/02/16 01:14:52;;;;;;;53.42;25.00;;;9.70;96.70;;;;;;5028976;28;20108;-73
2023/02/16 01:17:24;;;;;;;54.03;24.77;;;9.60;96.70;;;;;;5061102;28;20040;-74
2023/02/16 01:19:54;;;;;;;50.75;23.17;;;9.60;96.70;;;;;;5027302;28;20112;-74
2023/02/16 01:22:22;;;;;;;52.13;24.38;;;9.60;96.70;;;;;;5037477;28;20597;-73
2023/02/16 01:24:50;;;;;;;50.70;24.58;;;9.60;96.70;;;;;;5034506;28;20057;-74
2023/02/16 01:27:18;;;;;;;55.35;24.73;;;9.60;96.70;;;;;;5043434;28;20052;-73
2023/02/16 01:29:46;;;;;;;57.28;25.20;;;9.60;96.70;;;;;;5042543;28;20041;-73
2023/02/16 01:32:15;;;;;;;50.22;23.98;;;9.60;96.70;;;;;;5038452;28;20049;-73
2023/02/16 01:34:44;;;;;;;57.17;24.77;;;9.70;96.70;;;;;;5029979;28;20048;-74
2023/02/16 01:37:14;;;;;;;61.70;27.33;;;9.60;96.70;;;;;;5046405;28;20036;-73
2023/02/16 01:39:43;;;;;;;59.55;25.83;;;9.60;96.70;;;;;;5030915;28;20094;-74
2023/02/16 01:42:23;;;;;;;57.60;25.35;;;9.60;96.70;;;;;;5030050;28;20046;-74
2023/02/16 01:44:54;;;;;;;60.50;26.65;;;9.60;96.70;;;;;;5060883;28;20083;-73
2023/02/16 01:47:46;;;;;;;64.00;30.20;;;9.60;96.70;;;;;;5032737;28;20766;-74
2023/02/16 01:50:18;;;;;;;71.40;33.65;;;9.50;96.70;;;;;;5025364;28;20052;-73
2023/02/16 01:52:53;;;;;;;71.97;32.85;;;9.50;96.70;;;;;;5053442;28;20051;-74
2023/02/16 01:55:26;;;;;;;74.82;35.10;;;9.50;96.70;;;;;;5037398;28;20432;-74
2023/02/16 01:57:58;;;;;;;73.05;34.97;;;9.50;96.70;;;;;;5052805;28;20044;-73
2023/02/16 02:00:29;;;;;;;77.15;35.60;;;9.40;96.70;;;;;;5054863;28;20127;-74
2023/02/16 02:05:50;;;;;;;71.93;36.40;;;9.40;96.70;;;;;;5043840;28;20094;-73
2023/02/16 02:08:25;;;;;;;73.32;38.50;;;9.50;96.70;;;;;;5044523;28;20098;-73
2023/02/16 02:11:05;;;;;;;90.78;42.40;;;9.40;96.70;;;;;;5030198;28;20138;-74
2023/02/16 02:13:41;;;;;;;83.90;39.72;;;9.40;96.70;;;;;;5046954;28;20036;-73
2023/02/16 02:16:11;;;;;;;91.57;41.55;;;9.20;96.70;;;;;;5020996;28;20056;-74
2023/02/16 02:18:39;;;;;;;81.97;39.78;;;9.30;96.70;;;;;;5041704;28;20097;-74
2023/02/16 02:24:34;;;;;;;90.38;41.00;;;9.40;96.70;;;;;;5037124;28;20053;-74
2023/02/16 02:27:17;;;;;;;85.10;41.17;;;9.40;96.70;;;;;;5041467;28;21123;-73
2023/02/16 02:30:06;;;;;;;89.28;41.90;;;9.30;96.70;;;;;;5026163;28;20048;-73
2023/02/16 02:32:55;;;;;;;91.32;42.50;;;9.40;96.70;;;;;;5022939;28;20075;-73
2023/02/16 02:35:36;;;;;;;94.50;43.10;;;9.30;96.70;;;;;;5027020;28;20044;-73
2023/02/16 02:38:11;;;;;;;88.10;40.90;;;9.30;96.70;;;;;;5048809;28;20051;-74
2023/02/16 02:40:51;;;;;;;85.47;41.00;;;9.30;96.70;;;;;;5026498;28;20045;-73
2023/02/16 02:43:30;;;;;;;85.82;39.78;;;9.40;96.70;;;;;;5031705;28;20503;-73
2023/02/16 02:46:06;;;;;;;87.35;40.60;;;9.40;96.70;;;;;;5036755;28;20048;-74
2023/02/16 02:48:34;;;;;;;94.68;42.35;;;9.40;96.70;;;;;;5034427;28;20053;-72
2023/02/16 02:51:29;;;;;;;87.63;39.13;;;9.30;96.70;;;;;;5041299;28;20055;-73
2023/02/16 03:02:47;;;;;;;93.00;39.30;;;9.40;96.70;;;;;;5028396;28;20348;-73
2023/02/16 03:05:17;;;;;;;96.28;38.83;;;9.40;96.70;;;;;;5030118;28;20049;-74
2023/02/16 03:07:47;;;;;;;83.03;35.35;;;9.40;96.70;;;;;;5023449;28;20065;-74
2023/02/16 03:13:09;;;;;;;83.43;36.25;;;9.40;96.70;;;;;;5043294;28;20426;-74
2023/02/16 03:15:39;;;;;;;90.70;37.95;;;9.50;96.70;;;;;;5039760;28;20123;-74
2023/02/16 03:29:27;;;;;;;85.38;37.08;;;9.40;96.70;;;;;;5038216;28;20045;-71
2023/02/16 03:31:56;;;;;;;98.90;39.85;;;9.40;96.70;;;;;;5041773;28;20523;-71
2023/02/16 03:34:29;;;;;;;102.28;39.47;;;9.40;96.70;;;;;;5024248;28;20049;-74
2023/02/16 03:36:59;;;;;;;91.45;37.53;;;9.30;96.70;;;;;;5034236;28;20072;-74
2023/02/16 03:39:29;;;;;;;89.57;39.10;;;9.30;96.70;;;;;;5038691;28;20050;-73
2023/02/16 03:41:57;;;;;;;92.15;36.40;;;9.30;96.70;;;;;;5039585;28;20044;-74
2023/02/16 03:44:25;;;;;;;97.30;38.55;;;9.30;96.70;;;;;;5042630;28;20056;-74
2023/02/16 03:46:55;;;;;;;86.70;37.42;;;9.30;96.70;;;;;;5042899;28;20049;-74
2023/02/16 03:49:23;;;;;;;87.07;39.03;;;9.30;96.70;;;;;;5042204;28;20045;-74
2023/02/16 03:51:51;;;;;;;91.63;37.85;;;9.40;96.70;;;;;;5042312;28;20073;-73
2023/02/16 03:54:19;;;;;;;85.13;39.75;;;9.40;96.70;;;;;;5035009;28;20053;-73
2023/02/16 03:56:47;;;;;;;91.57;41.20;;;9.30;96.70;;;;;;5033900;28;20136;-73
2023/02/16 03:59:16;;;;;;;98.00;41.85;;;9.30;96.70;;;;;;5034262;28;20045;-74
2023/02/16 04:01:44;;;;;;;103.15;45.30;;;9.30;96.70;;;;;;5038935;28;20321;-73
2023/02/16 04:04:14;;;;;;;99.63;43.30;;;9.30;96.70;;;;;;5053817;28;20151;-75
2023/02/16 04:06:42;;;;;;;96.82;42.80;;;9.30;96.70;;;;;;5062907;28;20094;-73
2023/02/16 04:09:10;;;;;;;93.82;42.65;;;9.30;96.70;;;;;;5041423;28;20040;-73
2023/02/16 04:14:24;;;;;;;105.97;45.05;;;9.20;96.70;;;;;;5045186;28;20049;-74
2023/02/16 04:16:54;;;;;;;98.90;42.63;;;9.20;96.70;;;;;;5028191;28;20055;-73
2023/02/16 04:19:24;;;;;;;99.88;44.10;;;9.20;96.70;;;;;;5052543;28;20037;-73
2023/02/16 04:21:52;;;;;;;97.88;41.95;;;9.20;96.70;;;;;;5020035;28;20072;-74
2023/02/16 04:24:20;;;;;;;97.45;43.13;;;9.20;96.70;;;;;;5033338;28;20098;-73
2023/02/16 04:26:48;;;;;;;100.95;43.78;;;9.20;96.70;;;;;;5056319;28;20044;-73
2023/02/16 04:29:16;;;;;;;94.45;43.72;;;9.20;96.70;;;;;;5046216;28;20090;-74
2023/02/16 04:31:44;;;;;;;98.30;42.70;;;9.20;96.70;;;;;;5061170;28;20049;-73
2023/02/16 04:34:12;;;;;;;97.00;42.97;;;9.20;96.70;;;;;;5049088;28;20045;-74
2023/02/16 04:36:42;;;;;;;98.40;44.30;;;9.20;96.70;;;;;;5041008;28;20040;-74
2023/02/16 04:39:10;;;;;;;96.57;43.65;;;9.20;96.70;;;;;;5058375;28;20206;-74
2023/02/16 04:41:38;;;;;;;103.85;45.50;;;9.20;96.70;;;;;;5044874;28;20037;-74
2023/02/16 04:44:06;;;;;;;93.25;43.95;;;9.20;96.70;;;;;;5027348;28;20143;-74
2023/02/16 04:46:34;;;;;;;89.40;42.38;;;9.20;96.70;;;;;;5060980;28;20524;-74
2023/02/16 04:49:02;;;;;;;90.50;43.20;;;9.30;96.70;;;;;;5059170;28;20056;-73
2023/02/16 04:51:30;;;;;;;86.72;42.58;;;9.30;96.70;;;;;;5026964;28;20041;-74
2023/02/16 04:53:59;;;;;;;84.78;43.28;;;9.30;96.70;;;;;;5024602;28;20106;-74
2023/02/16 04:56:27;;;;;;;81.28;42.60;;;9.30;96.70;;;;;;5027956;28;20418;-74
2023/02/16 04:58:55;;;;;;;85.82;41.72;;;9.20;96.70;;;;;;5052324;28;20506;-73
2023/02/16 05:01:25;;;;;;;85.05;41.58;;;9.20;96.70;;;;;;5052360;28;20130;-73
2023/02/16 05:03:53;;;;;;;82.80;41.67;;;9.20;96.70;;;;;;5052564;28;20595;-73
2023/02/16 05:06:22;;;;;;;79.07;40.80;;;9.20;96.70;;;;;;5047791;28;20546;-74
2023/02/16 05:08:49;;;;;;;81.20;42.95;;;9.20;96.70;;;;;;5039797;28;20048;-73
2023/02/16 05:16:52;;;;;;;75.72;39.40;;;9.20;96.70;;;;;;5049738;28;20079;-74
2023/02/16 05:19:20;;;;;;;70.50;41.08;;;9.20;96.70;;;;;;5038184;28;20063;-73
2023/02/16 05:21:48;;;;;;;70.07;39.92;;;9.30;96.70;;;;;;5052753;28;20063;-73
2023/02/16 05:24:16;;;;;;;69.90;41.30;;;9.30;96.70;;;;;;5056075;28;20161;-74
2023/02/16 05:26:46;;;;;;;68.43;40.78;;;9.20;96.70;;;;;;5046247;28;20044;-73
2023/02/16 05:29:14;;;;;;;66.50;38.35;;;9.20;96.70;;;;;;5056905;28;20044;-75
2023/02/16 05:31:42;;;;;;;68.03;38.47;;;9.20;96.70;;;;;;5043372;28;20136;-72
2023/02/16 05:34:10;;;;;;;68.78;41.25;;;9.30;96.70;;;;;;5060417;28;20063;-74
2023/02/16 05:36:38;;;;;;;73.68;39.75;;;9.30;96.70;;;;;;5064516;28;20047;-73
2023/02/16 05:39:06;;;;;;;69.88;38.70;;;9.30;96.70;;;;;;5046874;28;20041;-74
2023/02/16 05:41:35;;;;;;;68.22;39.88;;;9.30;96.70;;;;;;5037011;28;20056;-74
2023/02/16 05:44:07;;;;;;;68.57;39.15;;;9.30;96.70;;;;;;5046563;28;20048;-74
2023/02/16 05:46:38;;;;;;;65.38;39.33;;;9.20;96.70;;;;;;5059431;28;20056;-74
2023/02/16 05:49:24;;;;;;;67.22;38.97;;;9.20;96.70;;;;;;5019798;28;20111;-74
2023/02/16 05:51:52;;;;;;;68.00;38.17;;;9.20;96.70;;;;;;5038019;28;20057;-73
2023/02/16 05:54:20;;;;;;;66.45;37.70;;;9.20;96.70;;;;;;5064752;28;20551;-73
2023/02/16 05:56:50;;;;;;;66.60;39.55;;;9.20;96.70;;;;;;5059137;28;20040;-73
2023/02/16 05:59:20;;;;;;;64.32;39.28;;;9.20;96.70;;;;;;5056213;28;20059;-74
2023/02/16 06:01:48;;;;;;;65.28;38.47;;;9.20;96.70;;;;;;5061315;28;20053;-73
2023/02/16 06:04:19;;;;;;;63.55;38.90;;;9.20;96.70;;;;;;5054309;28;20057;-73
2023/02/16 06:06:48;;;;;;;67.45;39.30;;;9.30;96.70;;;;;;5063680;28;20045;-74
2023/02/16 06:09:16;;;;;;;65.07;38.22;;;9.30;96.70;;;;;;5062893;28;20037;-72
2023/02/16 06:11:44;;;;;;;61.33;37.90;;;9.30;96.70;;;;;;5037298;28;20044;-73
2023/02/16 06:14:14;;;;;;;62.88;38.05;;;9.30;96.70;;;;;;5030555;28;20045;-73
2023/02/16 06:16:46;;;;;;;55.03;35.05;;;9.30;96.70;;;;;;5062349;28;20095;-74
2023/02/16 06:19:15;;;;;;;63.10;37.65;;;9.30;96.70;;;;;;5044032;28;20115;-75
2023/02/16 06:21:44;;;;;;;59.63;35.70;;;9.40;96.70;;;;;;5055081;28;20042;-74
2023/02/16 06:24:13;;;;;;;59.75;36.65;;;9.40;96.70;;;;;;5045680;28;20052;-73
2023/02/16 06:26:41;;;;;;;59.88;37.63;;;9.40;96.70;;;;;;5034023;28;20033;-73
2023/02/16 06:29:09;;;;;;;59.75;35.05;;;9.40;96.70;;;;;;5039949;28;20410;-74
2023/02/16 06:31:39;;;;;;;59.78;36.00;;;9.40;96.70;;;;;;5038045;28;20149;-74
2023/02/16 06:34:08;;;;;;;60.35;35.20;;;9.40;96.70;;;;;;5041904;28;20045;-74
2023/02/16 06:36:36;;;;;;;56.70;34.00;;;9.40;96.70;;;;;;5058320;28;20051;-74
2023/02/16 06:39:07;;;;;;;55.80;36.03;;;9.40;96.70;;;;;;5060501;28;20059;-74
2023/02/16 06:41:38;;;;;;;59.42;34.47;;;9.40;96.70;;;;;;5027111;28;20039;-74
2023/02/16 06:44:09;;;;;;;59.45;34.92;;;9.30;96.70;;;;;;5045917;28;20059;-73
2023/02/16 06:46:37;;;;;;;60.13;35.17;;;9.30;96.70;;;;;;5063669;28;20049;-74
2023/02/16 06:49:05;;;;;;;62.63;34.80;;;9.30;96.70;;;;;;5042378;28;20083;-74
2023/02/16 06:51:34;;;;;;;61.60;35.42;;;9.40;96.70;;;;;;5060932;28;20067;-74
2023/02/16 06:54:02;;;;;;;59.17;34.78;;;9.30;96.70;;;;;;5057807;28;20051;-75
2023/02/16 06:56:30;;;;;;;54.65;34.25;;;9.30;96.70;;;;;;5041012;28;20055;-75
2023/02/16 06:58:58;;;;;;;61.15;34.05;;;9.30;96.70;;;;;;5048670;28;20153;-75
2023/02/16 07:01:26;;;;;;;51.25;31.17;;;9.30;96.70;;;;;;5057717;28;20056;-73
2023/02/16 07:03:56;;;;;;;57.30;34.25;;;9.30;96.70;;;;;;5064017;28;20051;-74
2023/02/16 07:06:26;;;;;;;59.65;34.35;;;9.40;96.70;;;;;;5034958;28;20052;-74
2023/02/16 07:08:55;;;;;;;54.92;33.05;;;9.40;96.70;;;;;;5036952;28;20037;-74
2023/02/16 07:11:23;;;;;;;53.88;33.55;;;9.40;96.70;;;;;;5051752;28;20048;-75
2023/02/16 07:13:51;;;;;;;54.60;33.50;;;9.40;96.70;;;;;;5037137;28;20041;-74
2023/02/16 07:16:19;;;;;;;55.92;33.55;;;9.50;96.70;;;;;;5059651;28;20686;-74
2023/02/16 07:18:48;;;;;;;51.00;32.35;;;9.50;96.70;;;;;;5058387;28;20482;-73
2023/02/16 07:21:16;;;;;;;48.42;31.10;;;9.50;96.70;;;;;;5028375;28;20075;-79
2023/02/16 07:23:44;;;;;;;56.60;33.60;;;9.60;96.70;;;;;;5029791;28;20036;-81
2023/02/16 07:26:14;;;;;;;51.95;32.65;;;9.60;96.70;;;;;;5044007;28;20490;-74
2023/02/16 07:28:42;;;;;;;52.42;33.13;;;9.60;96.70;;;;;;5026802;28;20597;-75
2023/02/16 07:31:12;;;;;;;51.25;31.67;;;9.60;96.70;;;;;;5046025;28;20041;-75
2023/02/16 07:33:41;;;;;;;50.55;31.90;;;9.60;96.70;;;;;;5061650;28;20052;-75
2023/02/16 07:36:10;;;;;;;50.80;32.35;;;9.60;96.70;;;;;;5034995;28;20045;-74
2023/02/16 07:38:42;;;;;;;49.47;31.27;;;9.60;96.70;;;;;;5021727;28;20045;-74
2023/02/16 07:41:11;;;;;;;50.67;32.67;;;9.60;96.70;;;;;;5026649;28;20140;-73
2023/02/16 07:43:41;;;;;;;49.47;32.50;;;9.60;96.70;;;;;;5052777;28;20122;-73
2023/02/16 07:46:10;;;;;;;49.35;32.60;;;9.70;96.70;;;;;;5034708;28;20045;-73
2023/02/16 07:48:38;;;;;;;50.08;32.53;;;9.70;96.70;;;;;;5035976;28;20068;-72
2023/02/16 07:51:06;;;;;;;52.05;33.38;;;9.80;96.70;;;;;;5059402;28;20072;-73
2023/02/16 07:53:34;;;;;;;49.67;32.15;;;9.80;96.70;;;;;;5038535;28;20356;-73
2023/02/16 07:56:03;;;;;;;50.35;32.90;;;9.80;96.70;;;;;;5029932;28;20091;-73
2023/02/16 07:58:31;;;;;;;51.63;32.50;;;9.80;96.70;;;;;;5051865;28;20041;-73
2023/02/16 08:01:08;;;;;;;47.72;32.70;;;9.70;96.70;;;;;;5057093;28;20060;-73
2023/02/16 08:03:36;;;;;;;45.70;30.30;;;9.80;96.70;;;;;;5057929;28;20041;-74
2023/02/16 08:06:05;;;;;;;49.75;31.67;;;9.80;96.70;;;;;;5025275;28;20068;-72
2023/02/16 08:08:34;;;;;;;43.90;30.77;;;9.90;96.70;;;;;;5060081;28;20052;-73
2023/02/16 08:11:08;;;;;;;46.88;30.52;;;9.90;96.70;;;;;;5045326;28;20074;-73
2023/02/16 08:13:36;;;;;;;48.08;30.15;;;9.90;96.70;;;;;;5033871;28;20550;-73
2023/02/16 08:16:09;;;;;;;45.85;30.50;;;10.00;96.70;;;;;;5049576;28;20043;-73
2023/02/16 08:18:37;;;;;;;45.55;29.88;;;10.00;96.70;;;;;;5062172;28;20040;-73
2023/02/16 08:21:13;;;;;;;46.65;31.40;;;10.00;96.70;;;;;;5053285;28;20842;-73
2023/02/16 08:23:42;;;;;;;46.38;30.30;;;10.10;96.70;;;;;;5033153;28;20037;-73
2023/02/16 08:26:10;;;;;;;46.92;29.92;;;10.10;96.70;;;;;;5054999;28;20592;-72
2023/02/16 08:28:44;;;;;;;45.00;30.02;;;10.10;96.70;;;;;;5044288;28;20040;-72
2023/02/16 08:31:16;;;;;;;44.05;30.65;;;10.10;96.70;;;;;;5062355;28;20048;-72
2023/02/16 08:33:44;;;;;;;46.40;30.50;;;10.10;96.70;;;;;;5051909;28;20041;-73
2023/02/16 08:36:17;;;;;;;44.17;29.42;;;10.10;96.70;;;;;;5034378;28;20464;-72
2023/02/16 08:38:48;;;;;;;41.30;27.92;;;10.20;96.70;;;;;;5061580;28;20110;-72
2023/02/16 08:41:17;;;;;;;44.25;29.60;;;10.20;96.70;;;;;;5043800;28;20109;-73
2023/02/16 08:43:45;;;;;;;45.40;30.17;;;10.20;96.70;;;;;;5044539;28;20591;-73
2023/02/16 08:46:16;;;;;;;42.95;28.23;;;10.30;96.70;;;;;;5041309;28;20485;-72
2023/02/16 08:48:44;;;;;;;38.72;28.13;;;10.30;96.70;;;;;;5048177;28;20127;-72
2023/02/16 08:51:13;;;;;;;42.47;30.67;;;10.30;96.70;;;;;;5066039;28;20629;-72
2023/02/16 08:53:41;;;;;;;44.13;31.20;;;10.30;96.70;;;;;;5047651;28;20049;-72
2023/02/16 08:56:10;;;;;;;44.50;30.13;;;10.40;96.70;;;;;;5036565;28;20494;-72
2023/02/16 08:58:38;;;;;;;43.63;30.45;;;10.40;96.70;;;;;;5030685;28;20075;-72
2023/02/16 09:01:08;;;;;;;40.38;28.90;;;10.40;96.70;;;;;;5029975;28;20442;-73
2023/02/16 09:03:41;;;;;;;39.35;28.10;;;10.40;96.70;;;;;;5056031;28;20044;-72
2023/02/16 09:06:11;;;;;;;39.92;26.55;;;10.50;96.70;;;;;;5047483;28;20057;-72
2023/02/16 09:08:40;;;;;;;40.17;27.08;;;10.50;96.70;;;;;;5039718;28;20601;-72
2023/02/16 09:11:11;;;;;;;40.72;26.98;;;10.50;96.70;;;;;;5066041;28;20055;-72
2023/02/16 09:13:40;;;;;;;39.50;26.23;;;10.50;96.70;;;;;;5037615;28;20041;-74
2023/02/16 09:16:10;;;;;;;37.42;26.70;;;10.60;96.70;;;;;;5031908;28;20041;-75
2023/02/16 09:18:39;;;;;;;37.13;25.77;;;10.60;96.70;;;;;;5046028;28;20091;-74
2023/02/16 09:21:10;;;;;;;37.08;26.98;;;10.60;96.70;;;;;;5044945;28;20049;-74
2023/02/16 09:23:40;;;;;;;36.92;26.25;;;10.60;96.70;;;;;;5039328;28;20048;-72
2023/02/16 09:26:10;;;;;;;36.40;26.13;;;10.60;96.70;;;;;;5065345;28;20045;-72
2023/02/16 09:28:40;;;;;;;37.50;25.35;;;10.60;96.70;;;;;;5030967;28;20172;-72
2023/02/16 09:31:10;;;;;;;34.60;25.48;;;10.70;96.70;;;;;;5047683;28;20048;-72
2023/02/16 09:33:41;;;;;;;36.40;24.83;;;10.70;96.70;;;;;;5014764;28;20148;-72
2023/02/16 09:36:11;;;;;;;35.17;25.05;;;10.70;96.70;;;;;;5046190;28;20073;-72
2023/02/16 09:38:39;;;;;;;35.63;25.48;;;10.70;96.70;;;;;;5045910;28;20487;-72
2023/02/16 09:41:17;;;;;;;34.40;25.02;;;10.80;96.70;;;;;;5023852;28;20045;-72
2023/02/16 09:43:50;;;;;;;36.65;26.52;;;10.80;96.70;;;;;;5065568;28;20543;-72
2023/02/16 09:46:24;;;;;;;33.97;24.55;;;10.80;96.70;;;;;;5056549;28;20053;-72
2023/02/16 09:48:56;;;;;;;33.60;25.10;;;10.90;96.70;;;;;;5030613;28;20048;-73
2023/02/16 09:51:27;;;;;;;31.33;24.13;;;10.90;96.70;;;;;;5047149;28;20050;-72
2023/02/16 09:54:14;;;;;;;33.63;24.58;;;11.00;96.70;;;;;;5037554;28;20055;-72
2023/02/16 09:56:50;;;;;;;30.13;24.00;;;11.10;96.70;;;;;;5026327;28;20048;-72
2023/02/16 09:59:34;;;;;;;34.08;24.50;;;11.10;96.70;;;;;;5030297;28;20430;-72
2023/02/16 10:02:33;;;;;;;33.55;25.15;;;11.20;96.70;;;;;;5037976;28;20055;-72
2023/02/16 10:05:20;;;;;;;31.45;22.83;;;11.30;96.70;;;;;;5049288;28;20040;-72
2023/02/16 10:08:04;;;;;;;30.60;22.90;;;11.30;96.70;;;;;;5046268;28;20067;-72
2023/02/16 10:10:45;;;;;;;34.80;24.70;;;11.40;96.70;;;;;;5046841;28;20054;-72
2023/02/16 10:13:21;;;;;;;32.95;23.08;;;11.40;96.70;;;;;;5037365;28;20686;-71
2023/02/16 10:15:50;;;;;;;31.95;24.23;;;11.50;96.70;;;;;;5042083;28;20052;-72
2023/02/16 10:18:28;;;;;;;31.77;23.85;;;11.60;96.70;;;;;;5046274;28;20658;-72
2023/02/16 10:21:02;;;;;;;34.53;25.25;;;11.60;96.70;;;;;;5056334;28;20037;-72
2023/02/16 10:23:51;;;;;;;30.83;22.70;;;11.70;96.70;;;;;;5064003;28;20065;-72
2023/02/16 10:26:24;;;;;;;30.17;22.17;;;11.70;96.70;;;;;;5054499;28;20425;-72
2023/02/16 10:28:54;;;;;;;28.98;22.20;;;11.80;96.70;;;;;;5046654;28;20060;-72
2023/02/16 10:31:27;;;;;;;27.77;21.02;;;11.80;96.70;;;;;;5064221;28;20087;-72
2023/02/16 10:34:09;;;;;;;27.02;21.55;;;11.80;96.70;;;;;;5011977;28;20248;-72
2023/02/16 10:36:53;;;;;;;30.35;22.08;;;11.90;96.70;;;;;;5044744;28;20049;-72
2023/02/16 10:39:28;;;;;;;29.52;22.92;;;11.90;96.70;;;;;;5028195;28;20057;-72
2023/02/16 10:42:03;;;;;;;31.27;23.80;;;11.90;96.70;;;;;;5045002;28;20921;-72
2023/02/16 10:44:38;;;;;;;27.60;21.23;;;11.90;96.70;;;;;;5026955;28;20045;-73
2023/02/16 10:47:16;;;;;;;28.42;21.27;;;12.00;96.70;;;;;;5010196;28;20079;-72
2023/02/16 10:49:46;;;;;;;26.35;21.42;;;12.00;96.70;;;;;;5031771;28;20049;-72
2023/02/16 10:52:33;;;;;;;25.00;20.65;;;12.10;96.70;;;;;;5044173;28;20502;-72
2023/02/16 10:55:01;;;;;;;25.13;20.55;;;12.10;96.70;;;;;;5041804;28;20048;-72
2023/02/16 10:57:31;;;;;;;26.42;20.98;;;12.10;96.70;;;;;;5025450;28;20696;-73
2023/02/16 11:00:03;;;;;;;25.85;21.13;;;12.20;96.70;;;;;;5062274;28;20044;-72
2023/02/16 11:02:37;;;;;;;26.80;20.65;;;12.20;96.70;;;;;;5043477;28;20079;-73
2023/02/16 11:05:34;;;;;;;23.45;19.85;;;12.30;96.70;;;;;;5047266;28;20531;-73
2023/02/16 11:08:06;;;;;;;23.73;19.25;;;12.30;96.70;;;;;;5024826;28;20727;-73
2023/02/16 11:10:38;;;;;;;23.23;19.90;;;12.40;96.70;;;;;;5043873;28;20053;-75
2023/02/16 11:13:15;;;;;;;22.42;17.55;;;12.30;96.70;;;;;;5026080;28;20053;-74
2023/02/16 11:15:50;;;;;;;25.15;19.90;;;12.30;96.70;;;;;;5049635;28;20116;-74
2023/02/16 11:18:35;;;;;;;24.52;19.33;;;12.40;96.70;;;;;;5043666;28;20485;-72
2023/02/16 11:21:05;;;;;;;21.35;18.15;;;12.40;96.70;;;;;;5039859;28;20052;-73
2023/02/16 11:23:37;;;;;;;26.45;19.38;;;12.40;96.70;;;;;;5028735;28;20410;-72
2023/02/16 11:26:22;;;;;;;21.38;17.30;;;12.50;96.70;;;;;;5027254;28;20057;-73
2023/02/16 11:28:52;;;;;;;23.52;19.95;;;12.50;96.70;;;;;;5009934;28;20052;-72
2023/02/16 11:31:26;;;;;;;25.73;19.40;;;12.50;96.70;;;;;;5029072;28;20046;-71
2023/02/16 11:33:58;;;;;;;26.25;19.67;;;12.60;96.70;;;;;;5046262;28;20051;-72
2023/02/16 11:36:31;;;;;;;21.27;18.02;;;12.70;96.70;;;;;;5048212;28;20080;-73
2023/02/16 11:39:05;;;;;;;23.85;19.38;;;12.70;96.70;;;;;;5008518;28;20143;-72
2023/02/16 11:41:34;;;;;;;23.75;18.70;;;12.80;96.70;;;;;;5043342;28;20041;-72
2023/02/16 11:44:03;;;;;;;22.65;18.85;;;12.80;96.70;;;;;;5050148;28;20123;-72
2023/02/16 11:46:39;;;;;;;22.55;18.27;;;12.90;96.70;;;;;;5035906;28;20151;-72
2023/02/16 11:49:30;;;;;;;20.92;18.25;;;12.90;96.70;;;;;;5025460;28;20049;-72
2023/02/16 11:51:59;;;;;;;23.23;18.83;;;12.90;96.70;;;;;;5025262;28;20128;-72
2023/02/16 11:54:29;;;;;;;20.55;17.98;;;12.90;96.70;;;;;;5052323;28;20053;-72
2023/02/16 11:57:03;;;;;;;19.80;15.70;;;12.90;96.70;;;;;;5053779;28;20565;-72
2023/02/16 11:59:36;;;;;;;18.58;15.25;;;12.90;96.70;;;;;;5061452;28;20124;-72
2023/02/16 12:02:39;;;;;;;22.88;16.88;;;13.00;96.70;;;;;;5032460;28;20131;-73
2023/02/16 12:05:25;;;;;;;18.95;16.08;;;13.00;96.70;;;;;;5025287;28;20072;-72
2023/02/16 12:08:17;;;;;;;18.55;15.73;;;13.00;96.70;;;;;;5048397;28;20049;-74
2023/02/16 12:11:00;;;;;;;19.92;16.35;;;13.00;96.70;;;;;;5039071;28;20044;-73
2023/02/16 12:13:42;;;;;;;19.95;16.30;;;13.10;96.70;;;;;;5044380;28;20474;-74
2023/02/16 12:16:24;;;;;;;19.35;16.23;;;13.10;96.70;;;;;;5048227;28;20086;-74
2023/02/16 12:19:12;;;;;;;21.08;16.63;;;13.10;96.70;;;;;;5045910;28;20052;-74
2023/02/16 12:21:44;;;;;;;19.35;16.85;;;13.10;96.70;;;;;;5035171;28;20055;-73
2023/02/16 12:24:28;;;;;;;20.52;15.98;;;13.00;96.70;;;;;;5060401;28;20094;-75
2023/02/16 12:27:01;;;;;;;18.60;15.52;;;12.90;96.70;;;;;;5042569;28;20041;-76
2023/02/16 12:29:38;;;;;;;20.00;15.82;;;12.80;96.70;;;;;;5032654;28;20048;-75
2023/02/16 12:32:34;;;;;;;20.02;16.10;;;12.80;96.70;;;;;;5042244;28;20154;-74
2023/02/16 12:35:17;;;;;;;20.05;16.45;;;12.70;96.70;;;;;;5045730;28;20124;-73
2023/02/16 12:37:51;;;;;;;22.15;17.92;;;12.60;96.70;;;;;;5050797;28;20438;-72
2023/02/16 12:40:26;;;;;;;18.70;16.48;;;12.60;96.70;;;;;;5024717;28;20052;-71
2023/02/16 12:43:04;;;;;;;20.58;15.40;;;12.60;96.70;;;;;;5044605;28;20379;-72
2023/02/16 12:45:36;;;;;;;17.83;14.30;;;12.60;96.70;;;;;;5023311;28;20076;-72
2023/02/16 12:48:15;;;;;;;17.85;14.60;;;12.70;96.70;;;;;;5035813;28;20044;-72
2023/02/16 12:50:47;;;;;;;17.05;15.20;;;12.70;96.70;;;;;;5046372;28;20110;-72
2023/02/16 12:53:21;;;;;;;16.83;14.32;;;12.80;96.70;;;;;;5041491;28;20514;-71
2023/02/16 12:55:54;;;;;;;16.38;13.30;;;12.80;96.70;;;;;;5040248;28;20048;-71
2023/02/16 12:58:29;;;;;;;15.57;12.68;;;12.80;96.70;;;;;;5031132;28;20499;-71
2023/02/16 13:01:02;;;;;;;13.95;12.02;;;12.80;96.70;;;;;;5056357;28;20131;-71
2023/02/16 13:03:37;;;;;;;14.10;11.18;;;12.80;96.70;;;;;;5058310;28;20409;-72
2023/02/16 13:06:18;;;;;;;15.48;11.98;;;12.70;96.70;;;;;;5031175;28;20119;-70
2023/02/16 13:08:51;;;;;;;13.77;12.18;;;12.80;96.70;;;;;;5054191;28;20049;-71
2023/02/16 13:11:39;;;;;;;16.83;11.90;;;12.80;96.70;;;;;;5051050;28;20121;-74
2023/02/16 13:14:17;;;;;;;16.17;12.55;;;12.80;96.70;;;;;;5056242;28;20044;-75
2023/02/16 13:16:49;;;;;;;10.60;9.50;;;12.90;96.70;;;;;;5023412;28;20461;-72
2023/02/16 13:19:17;;;;;;;12.30;10.25;;;12.80;96.70;;;;;;5047701;28;20047;-72
2023/02/16 13:22:06;;;;;;;12.35;9.55;;;12.90;96.70;;;;;;5061120;28;20037;-72
2023/02/16 13:24:45;;;;;;;14.20;9.63;;;12.90;96.70;;;;;;5050885;28;20052;-72
2023/02/16 13:27:26;;;;;;;12.05;10.35;;;12.90;96.70;;;;;;5037660;28;20454;-72
2023/02/16 13:30:19;;;;;;;14.75;10.43;;;12.90;96.70;;;;;;5033828;28;20033;-72
2023/02/16 13:33:03;;;;;;;11.55;9.20;;;12.90;96.70;;;;;;5057193;28;20058;-72
2023/02/16 13:35:57;;;;;;;13.90;10.18;;;12.90;96.70;;;;;;5028037;28;20048;-72
2023/02/16 13:39:00;;;;;;;12.35;10.45;;;12.90;96.70;;;;;;5033853;28;20041;-72
2023/02/16 13:41:41;;;;;;;12.07;9.15;;;12.90;96.70;;;;;;5037970;28;20097;-73
2023/02/16 13:44:14;;;;;;;12.60;9.57;;;12.80;96.70;;;;;;5039042;28;20106;-72
2023/02/16 13:46:48;;;;;;;11.50;9.63;;;12.80;96.70;;;;;;5046025;28;20046;-72